Time;durP1;ratioP1;P1;durP2;ratioP2;P2;SDS_P1;SDS_P2;PMS_P1;PMS_P2;Temp;Humidity;BMP_temperature;BMP_pressure;BME280_temperature;BME280_humidity;BME280_pressure;Samples;Min_cycle;Max_cycle;Signal;HPM_P1;HPM_P2
2021/01/17 00:01:52;12751.00;0.04;22.71;0.00;0.00;0.62;;;;;7.90;1.00;;;;;;2265753;61;1011;-88
2021/01/17 00:04:19;14420.00;0.05;25.61;0.00;0.00;0.62;;;;;8.00;1.00;;;;;;2272474;61;1060;-89
2021/01/17 00:06:46;0.00;0.00;0.62;0.00;0.00;0.62;;;;;8.20;1.00;;;;;;2266582;60;1012;-87
2021/01/17 00:09:13;135431.00;0.45;234.69;0.00;0.00;0.62;;;;;7.70;1.00;;;;;;2268378;61;1317;-90
2021/01/17 00:11:39;164323.00;0.55;284.49;0.00;0.00;0.62;;;;;6.60;1.00;;;;;;2268396;61;1029;-89
2021/01/17 00:14:06;74856.00;0.25;130.15;0.00;0.00;0.62;;;;;5.80;1.00;;;;;;2262519;61;2010;-89
2021/01/17 00:16:32;147958.00;0.49;256.29;0.00;0.00;0.62;;;;;5.20;1.00;;;;;;2276614;61;977;-90
2021/01/17 00:18:59;105983.00;0.35;183.90;0.00;0.00;0.62;;;;;4.60;1.00;;;;;;2276554;61;916;-88
2021/01/17 00:21:25;61308.00;0.20;106.74;0.00;0.00;0.62;;;;;4.70;1.00;;;;;;2268357;61;997;-88
2021/01/17 00:23:52;23242.00;0.08;40.88;0.00;0.00;0.62;;;;;4.60;1.00;;;;;;2268393;61;1021;-88
2021/01/17 00:26:19;41952.00;0.14;73.27;0.00;0.00;0.62;;;;;5.20;1.00;;;;;;2262990;60;986;-88
2021/01/17 00:28:45;27954.00;0.09;49.04;0.00;0.00;0.62;;;;;5.40;1.00;;;;;;2272376;61;986;-89
2021/01/17 00:31:12;155775.00;0.52;269.76;0.00;0.00;0.62;;;;;4.80;1.00;;;;;;2272393;61;1350;-88
2021/01/17 00:33:39;190169.00;0.63;329.00;0.00;0.00;0.62;;;;;4.30;1.00;;;;;;2265654;61;1916;-90
2021/01/17 00:36:06;35696.00;0.12;62.44;0.00;0.00;0.62;;;;;3.90;1.00;;;;;;2268221;61;1036;-88
2021/01/17 00:38:32;92573.00;0.31;160.75;0.00;0.00;0.62;;;;;4.00;1.00;;;;;;2262526;61;1012;-89
2021/01/17 00:40:59;76524.00;0.26;133.03;0.00;0.00;0.62;;;;;4.40;1.00;;;;;;2264136;61;1531;-89
2021/01/17 00:43:26;64857.00;0.22;112.87;0.00;0.00;0.62;;;;;5.10;1.00;;;;;;2257600;61;1080;-89
2021/01/17 00:45:53;78453.00;0.26;136.37;0.00;0.00;0.62;;;;;5.60;1.00;;;;;;2259541;61;1014;-89
2021/01/17 00:48:19;40454.00;0.13;70.67;0.00;0.00;0.62;;;;;5.80;1.00;;;;;;2260861;61;1006;-88
2021/01/17 00:50:46;99108.00;0.33;172.03;0.00;0.00;0.62;;;;;6.10;1.00;;;;;;2260170;61;1328;-88
2021/01/17 00:53:12;151598.00;0.51;262.56;0.00;0.00;0.62;;;;;6.40;1.00;;;;;;2260585;61;1906;-89
2021/01/17 00:55:40;33942.00;0.11;59.41;0.00;0.00;0.62;;;;;6.90;1.00;;;;;;2257585;61;1012;-88
2021/01/17 00:58:07;205256.00;0.68;354.97;42673.00;0.14;74.51;;;;;7.20;1.00;;;;;;2261780;61;978;-89
2021/01/17 01:00:34;6949.00;0.02;12.66;0.00;0.00;0.62;;;;;7.10;1.00;;;;;;2272270;61;1403;-91
2021/01/17 01:03:00;26637.00;0.09;46.76;0.00;0.00;0.62;;;;;7.20;1.00;;;;;;2273205;60;1086;-88
2021/01/17 01:05:27;112470.00;0.37;195.09;0.00;0.00;0.62;;;;;7.20;1.00;;;;;;2273542;60;1013;-88
2021/01/17 01:07:53;0.00;0.00;0.62;0.00;0.00;0.62;;;;;7.20;1.00;;;;;;2277964;60;981;-90
2021/01/17 01:10:20;59305.00;0.20;103.28;0.00;0.00;0.62;;;;;7.00;1.00;;;;;;2289011;60;1340;-88
2021/01/17 01:12:47;196128.00;0.65;339.26;0.00;0.00;0.62;;;;;7.30;1.00;;;;;;2278539;60;1017;-88
2021/01/17 01:15:13;47543.00;0.16;82.94;0.00;0.00;0.62;;;;;7.60;1.00;;;;;;2276227;61;2027;-88
2021/01/17 01:17:41;172084.00;0.57;297.86;0.00;0.00;0.62;;;;;6.90;1.00;;;;;;2268002;61;1053;-88
2021/01/17 01:20:08;59833.00;0.20;104.19;0.00;0.00;0.62;;;;;6.30;1.00;;;;;;2268208;61;1396;-89
2021/01/17 01:22:39;39542.00;0.13;69.10;0.00;0.00;0.62;;;;;6.80;1.00;;;;;;2260074;61;1033;-88
2021/01/17 01:25:08;105871.00;0.35;183.70;0.00;0.00;0.62;;;;;7.30;1.00;;;;;;2260155;61;1016;-89
2021/01/17 01:27:34;110379.00;0.37;191.48;0.00;0.00;0.62;;;;;7.30;1.00;;;;;;2253455;61;992;-88
2021/01/17 01:30:01;38149.00;0.13;66.69;0.00;0.00;0.62;;;;;7.50;1.00;;;;;;2260075;61;1315;-89
2021/01/17 01:32:27;218989.00;0.73;378.60;33940.00;0.11;59.40;;;;;7.30;1.00;;;;;;2258772;61;1000;-87
2021/01/17 01:34:54;95824.00;0.32;166.36;0.00;0.00;0.62;;;;;7.40;1.00;;;;;;2262805;60;2006;-88
2021/01/17 01:37:22;168395.00;0.56;291.50;29973.00;0.10;52.54;;;;;7.70;1.00;;;;;;2268098;61;1010;-88
2021/01/17 01:39:49;43845.00;0.15;76.54;0.00;0.00;0.62;;;;;7.90;1.00;;;;;;2270091;60;1347;-88
2021/01/17 01:42:16;91116.00;0.30;158.23;0.00;0.00;0.62;;;;;7.60;1.00;;;;;;2280333;60;1005;-89
2021/01/17 01:44:42;136508.00;0.46;236.55;0.00;0.00;0.62;;;;;6.80;1.00;;;;;;2272107;61;943;-88
2021/01/17 01:47:15;37281.00;0.12;65.18;0.00;0.00;0.62;;;;;6.10;1.00;;;;;;2265468;61;1027;-87
2021/01/17 01:58:05;217198.00;0.72;375.52;0.00;0.00;0.62;;;;;7.10;1.00;;;;;;2294514;60;1455;-88
2021/01/17 02:00:32;12415.00;0.04;22.13;0.00;0.00;0.62;;;;;7.40;1.00;;;;;;2285495;60;1372;-89
2021/01/17 02:02:58;78546.00;0.26;136.53;0.00;0.00;0.62;;;;;7.80;1.00;;;;;;2284022;60;1054;-87
2021/01/17 02:05:25;87752.00;0.29;152.43;0.00;0.00;0.62;;;;;7.90;1.00;;;;;;2273933;61;1024;-88
2021/01/17 02:08:13;50205.00;0.17;87.54;0.00;0.00;0.62;;;;;7.90;1.00;;;;;;2273912;60;1047;-88
2021/01/17 02:10:41;458479.00;1.53;790.37;85570.00;0.29;148.66;;;;;7.50;1.00;;;;;;2275844;61;1432;-89
2021/01/17 02:13:15;85735.00;0.29;148.94;0.00;0.00;0.62;;;;;6.80;1.00;;;;;;2272459;61;1911;-88
2021/01/17 02:15:44;88965.00;0.30;154.52;0.00;0.00;0.62;;;;;6.70;1.00;;;;;;2272465;61;1050;-87
2021/01/17 02:18:12;37051.00;0.12;64.79;0.00;0.00;0.62;;;;;6.60;1.00;;;;;;2269113;61;1009;-88
2021/01/17 02:20:40;11004.00;0.04;19.69;0.00;0.00;0.62;;;;;7.10;1.00;;;;;;2278789;60;1436;-88
2021/01/17 02:23:15;63500.00;0.21;110.53;0.00;0.00;0.62;;;;;7.00;1.00;;;;;;2284057;60;1030;-89
2021/01/17 02:25:43;64087.00;0.21;111.54;0.00;0.00;0.62;;;;;7.10;1.00;;;;;;2284043;60;1051;-87
2021/01/17 02:28:12;55067.00;0.18;95.95;0.00;0.00;0.62;;;;;7.50;1.00;;;;;;2286396;60;1022;-89
2021/01/17 02:30:45;0.00;0.00;0.62;0.00;0.00;0.62;;;;;7.20;1.00;;;;;;2288726;60;1336;-89
2021/01/17 02:33:14;96629.00;0.32;167.75;0.00;0.00;0.62;;;;;7.40;1.00;;;;;;2288789;60;1921;-88
2021/01/17 02:35:41;14197.00;0.05;25.22;0.00;0.00;0.62;;;;;7.60;1.00;;;;;;2282013;60;980;-89
2021/01/17 02:38:19;306071.00;1.02;528.36;21614.00;0.07;38.06;;;;;7.40;1.00;;;;;;2281954;60;971;-88
2021/01/17 02:41:01;0.00;0.00;0.62;0.00;0.00;0.62;;;;;7.40;1.00;;;;;;2283120;60;1488;-88
2021/01/17 02:43:28;15463.00;0.05;27.41;0.00;0.00;0.62;;;;;8.00;1.00;;;;;;2277904;60;1023;-88
2021/01/17 02:45:55;114038.00;0.38;197.80;0.00;0.00;0.62;;;;;8.30;1.00;;;;;;2281242;60;993;-88
2021/01/17 02:48:21;7084.00;0.02;12.90;0.00;0.00;0.62;;;;;8.50;1.00;;;;;;2276406;61;1054;-89
2021/01/17 02:50:48;29487.00;0.10;51.70;0.00;0.00;0.62;;;;;8.70;1.00;;;;;;2276425;61;1439;-89
2021/01/17 02:53:20;1156.00;0.00;2.62;0.00;0.00;0.62;;;;;8.30;1.00;;;;;;2269715;61;1917;-89
2021/01/17 02:55:53;73022.00;0.24;126.98;0.00;0.00;0.62;;;;;8.10;1.00;;;;;;2276347;61;1009;-89
2021/01/17 02:58:22;144740.00;0.48;250.74;0.00;0.00;0.62;;;;;8.10;1.00;;;;;;2278930;60;1042;-89
2021/01/17 03:00:53;72512.00;0.24;126.10;0.00;0.00;0.62;;;;;8.50;1.00;;;;;;2284556;60;1335;-90
2021/01/17 03:03:22;101004.00;0.34;175.30;0.00;0.00;0.62;;;;;8.60;1.00;;;;;;2277799;61;993;-90
2021/01/17 03:05:50;35075.00;0.12;61.37;0.00;0.00;0.62;;;;;8.70;1.00;;;;;;2278529;60;1053;-89
2021/01/17 03:08:17;42160.00;0.14;73.63;0.00;0.00;0.62;;;;;8.80;1.00;;;;;;2285619;60;1063;-87
2021/01/17 03:10:43;93620.00;0.31;162.56;0.00;0.00;0.62;;;;;8.60;1.00;;;;;;2288720;60;1435;-88
2021/01/17 03:13:11;32474.00;0.11;56.87;0.00;0.00;0.62;;;;;8.00;1.00;;;;;;2288786;60;1006;-91
2021/01/17 03:15:41;131454.00;0.44;227.84;0.00;0.00;0.62;;;;;8.30;1.00;;;;;;2288671;60;1986;-89
2021/01/17 03:18:08;26761.00;0.09;46.98;0.00;0.00;0.62;;;;;8.20;1.00;;;;;;2281836;60;1028;-89
2021/01/17 03:20:34;102892.00;0.34;178.56;0.00;0.00;0.62;;;;;7.50;1.00;;;;;;2288631;60;1301;-88
2021/01/17 03:23:01;20074.00;0.07;35.40;0.00;0.00;0.62;;;;;7.20;1.00;;;;;;2288679;60;1027;-89
2021/01/17 03:25:27;33274.00;0.11;58.25;0.00;0.00;0.62;;;;;7.00;1.00;;;;;;2289333;60;1032;-89
2021/01/17 03:27:54;43205.00;0.14;75.43;0.00;0.00;0.62;;;;;6.70;1.00;;;;;;2286024;60;1042;-90
2021/01/17 03:30:22;26895.00;0.09;47.21;0.00;0.00;0.62;;;;;6.70;1.00;;;;;;2293164;60;1439;-89
2021/01/17 03:32:48;23090.00;0.08;40.62;0.00;0.00;0.62;;;;;6.80;1.00;;;;;;2293186;60;960;-89
2021/01/17 03:35:15;223563.00;0.75;386.47;0.00;0.00;0.62;;;;;7.10;1.00;;;;;;2286003;60;2020;-89
2021/01/17 03:37:42;112588.00;0.38;195.30;0.00;0.00;0.62;;;;;7.60;1.00;;;;;;2293184;60;1074;-90
2021/01/17 03:40:09;119849.00;0.40;207.82;0.00;0.00;0.62;;;;;7.30;1.00;;;;;;2282534;60;1442;-87
2021/01/17 03:42:35;55296.00;0.18;96.34;0.00;0.00;0.62;;;;;7.20;1.00;;;;;;2285904;60;970;-89
2021/01/17 03:45:03;27362.00;0.09;48.02;0.00;0.00;0.62;;;;;6.80;1.00;;;;;;2293152;60;1048;-88
2021/01/17 03:47:30;137014.00;0.46;237.42;0.00;0.00;0.62;;;;;6.70;1.00;;;;;;2280427;61;1042;-90
2021/01/17 03:49:57;0.00;0.00;0.62;0.00;0.00;0.62;;;;;7.10;1.00;;;;;;2273535;61;1400;-90
2021/01/17 03:52:23;147628.00;0.49;255.72;0.00;0.00;0.62;;;;;7.70;1.00;;;;;;2273692;61;1057;-91
2021/01/17 03:54:50;104071.00;0.35;180.60;0.00;0.00;0.62;;;;;7.70;1.00;;;;;;2276195;61;2008;-89
2021/01/17 03:57:16;7981.00;0.03;14.45;0.00;0.00;0.62;;;;;7.70;1.00;;;;;;2276279;61;1048;-88
2021/01/17 03:59:43;16413.00;0.05;29.06;0.00;0.00;0.62;;;;;8.20;1.00;;;;;;2272821;61;1368;-88
2021/01/17 04:02:10;27567.00;0.09;48.37;0.00;0.00;0.62;;;;;8.50;1.00;;;;;;2272194;61;951;-89
2021/01/17 04:04:37;593.00;0.00;1.65;0.00;0.00;0.62;;;;;8.80;1.00;;;;;;2266399;61;959;-88
2021/01/17 04:07:04;46720.00;0.16;81.51;0.00;0.00;0.62;;;;;8.90;1.00;;;;;;2272077;61;1002;-88
2021/01/17 04:09:30;72800.00;0.24;126.60;0.00;0.00;0.62;;;;;8.90;1.00;;;;;;2268684;61;1302;-88
2021/01/17 04:11:57;126830.00;0.42;219.86;0.00;0.00;0.62;;;;;8.80;1.00;;;;;;2267975;61;1021;-88
2021/01/17 04:14:23;69414.00;0.23;120.75;0.00;0.00;0.62;;;;;8.90;1.00;;;;;;2268117;61;1915;-88
2021/01/17 04:16:50;15217.00;0.05;26.99;0.00;0.00;0.62;;;;;9.00;1.00;;;;;;2268136;61;944;-87
2021/01/17 04:19:17;43875.00;0.15;76.59;0.00;0.00;0.62;;;;;9.00;1.00;;;;;;2261674;61;1579;-88
2021/01/17 04:21:44;47471.00;0.16;82.81;0.00;0.00;0.62;;;;;9.20;1.00;;;;;;2272140;61;1030;-89
2021/01/17 04:24:11;43972.00;0.15;76.76;0.00;0.00;0.62;;;;;9.30;1.00;;;;;;2265446;61;958;-88
2021/01/17 04:26:38;77757.00;0.26;135.16;0.00;0.00;0.62;;;;;9.00;1.00;;;;;;2269408;61;965;-88
2021/01/17 04:29:04;86649.00;0.29;150.52;0.00;0.00;0.62;;;;;8.60;1.00;;;;;;2277012;61;1459;-87
2021/01/17 04:31:39;36370.00;0.12;63.61;0.00;0.00;0.62;;;;;8.40;1.00;;;;;;2280924;61;1085;-88
2021/01/17 04:34:06;24565.00;0.08;43.17;0.00;0.00;0.62;;;;;8.00;1.00;;;;;;2272059;61;2002;-87
2021/01/17 04:36:33;11859.00;0.04;21.17;0.00;0.00;0.62;;;;;7.90;1.00;;;;;;2265342;61;948;-87
2021/01/17 04:39:00;16926.00;0.06;29.95;0.00;0.00;0.62;;;;;7.60;1.00;;;;;;2271955;61;1153;-87
2021/01/17 04:41:28;36160.00;0.12;63.24;0.00;0.00;0.62;;;;;7.50;1.00;;;;;;2277051;61;1073;-87
2021/01/17 04:43:57;85151.00;0.28;147.93;0.00;0.00;0.62;;;;;7.60;1.00;;;;;;2280642;61;1243;-86
2021/01/17 04:46:26;15984.00;0.05;28.31;0.00;0.00;0.62;;;;;7.70;1.00;;;;;;2277360;61;1092;-88
2021/01/17 04:49:00;0.00;0.00;0.62;0.00;0.00;0.62;;;;;7.70;1.00;;;;;;2277367;61;1096;-87
2021/01/17 04:51:28;78603.00;0.26;136.62;0.00;0.00;0.62;;;;;7.90;1.00;;;;;;2275156;60;1030;-88
2021/01/17 04:53:55;0.00;0.00;0.62;0.00;0.00;0.62;;;;;8.50;1.00;;;;;;2283819;61;2010;-88
2021/01/17 04:56:27;25756.00;0.09;45.24;0.00;0.00;0.62;;;;;8.90;1.00;;;;;;2280658;61;1080;-86
2021/01/17 04:59:10;30815.00;0.10;53.99;0.00;0.00;0.62;;;;;9.00;1.00;;;;;;2276749;61;1191;-88
2021/01/17 05:01:51;93044.00;0.31;161.56;0.00;0.00;0.62;;;;;9.10;1.00;;;;;;2283888;60;1208;-88
2021/01/17 05:04:47;0.00;0.00;0.62;0.00;0.00;0.62;;;;;9.30;1.00;;;;;;2275849;61;971;-87
2021/01/17 05:07:17;12517.00;0.04;22.31;0.00;0.00;0.62;;;;;9.30;1.00;;;;;;2269109;61;999;-86
2021/01/17 05:09:49;52783.00;0.18;92.00;0.00;0.00;0.62;;;;;9.30;1.00;;;;;;2267677;61;1351;-84
2021/01/17 05:12:20;0.00;0.00;0.62;0.00;0.00;0.62;;;;;9.20;1.00;;;;;;2269647;61;967;-87
2021/01/17 05:14:55;32834.00;0.11;57.49;0.00;0.00;0.62;;;;;9.00;1.00;;;;;;2275865;61;1993;-87
2021/01/17 05:17:22;3321.00;0.01;6.38;0.00;0.00;0.62;;;;;9.10;1.00;;;;;;2275862;61;1064;-87
2021/01/17 05:19:49;92859.00;0.31;161.24;0.00;0.00;0.62;;;;;9.00;1.00;;;;;;2265785;61;1354;-88
2021/01/17 05:22:18;87932.00;0.29;152.74;0.00;0.00;0.62;;;;;9.10;1.00;;;;;;2274867;60;998;-87
2021/01/17 05:24:51;185871.00;0.62;321.60;0.00;0.00;0.62;;;;;9.20;1.00;;;;;;2283864;61;1028;-85
2021/01/17 05:27:18;143530.00;0.48;248.66;0.00;0.00;0.62;;;;;9.30;1.00;;;;;;2285256;60;1106;-86
2021/01/17 05:29:45;79860.00;0.27;138.80;0.00;0.00;0.62;;;;;9.40;1.00;;;;;;2292418;60;1449;-86
2021/01/17 05:32:15;13018.00;0.04;23.18;0.00;0.00;0.62;;;;;9.50;1.00;;;;;;2288846;60;1019;-85
2021/01/17 05:34:42;9096.00;0.03;16.38;0.00;0.00;0.62;;;;;9.30;1.00;;;;;;2292732;60;1988;-87
2021/01/17 05:37:10;106082.00;0.35;184.07;0.00;0.00;0.62;;;;;8.70;1.00;;;;;;2285403;60;1076;-88
2021/01/17 05:39:56;39847.00;0.13;69.62;0.00;0.00;0.62;;;;;7.50;1.00;;;;;;2285241;60;1441;-88
2021/01/17 05:42:24;133433.00;0.44;231.25;0.00;0.00;0.62;;;;;6.90;1.00;;;;;;2285344;60;1063;-89
2021/01/17 05:44:51;151744.00;0.51;262.81;0.00;0.00;0.62;;;;;6.80;1.00;;;;;;2285361;60;984;-88
2021/01/17 05:47:21;24098.00;0.08;42.37;0.00;0.00;0.62;;;;;6.70;1.00;;;;;;2285440;60;970;-91
2021/01/17 05:49:49;2579.00;0.01;5.09;0.00;0.00;0.62;;;;;6.90;1.00;;;;;;2282131;60;1439;-88
2021/01/17 05:52:17;56536.00;0.19;98.49;0.00;0.00;0.62;;;;;7.10;1.00;;;;;;2292630;60;1024;-88
2021/01/17 05:54:48;83056.00;0.28;144.32;0.00;0.00;0.62;;;;;7.00;1.00;;;;;;2292581;60;1977;-88
2021/01/17 05:57:16;202391.00;0.67;350.04;89322.00;0.30;155.14;;;;;6.90;1.00;;;;;;2292603;60;926;-88
2021/01/17 05:59:44;185481.00;0.62;320.93;87057.00;0.29;151.23;;;;;6.80;1.00;;;;;;2292464;60;1320;-88
2021/01/17 06:02:15;51323.00;0.17;89.47;0.00;0.00;0.62;;;;;6.50;1.00;;;;;;2285256;60;1020;-88
2021/01/17 06:04:43;65269.00;0.22;113.58;0.00;0.00;0.62;;;;;6.70;1.00;;;;;;2280398;60;1017;-89
2021/01/17 06:07:10;18281.00;0.06;32.29;0.00;0.00;0.62;;;;;7.00;1.00;;;;;;2285235;60;1163;-88
2021/01/17 06:09:38;35187.00;0.12;61.56;0.00;0.00;0.62;;;;;7.30;1.00;;;;;;2288486;60;1410;-86
2021/01/17 06:12:06;75863.00;0.25;131.89;0.00;0.00;0.62;;;;;7.70;1.00;;;;;;2285169;60;1297;-86
2021/01/17 06:14:33;48795.00;0.16;85.10;0.00;0.00;0.62;;;;;8.10;1.00;;;;;;2285316;60;1923;-86
2021/01/17 06:17:03;98606.00;0.33;171.17;0.00;0.00;0.62;;;;;8.20;1.00;;;;;;2287849;60;938;-86
2021/01/17 06:19:37;7355.00;0.02;13.37;0.00;0.00;0.62;;;;;8.30;1.00;;;;;;2287979;60;1325;-86
2021/01/17 06:22:06;62809.00;0.21;109.33;0.00;0.00;0.62;;;;;8.10;1.00;;;;;;2283755;61;1021;-86
2021/01/17 06:24:38;186396.00;0.62;322.50;0.00;0.00;0.62;;;;;8.00;1.00;;;;;;2276865;61;1026;-87
2021/01/17 06:27:06;105280.00;0.35;182.68;0.00;0.00;0.62;;;;;7.60;1.00;;;;;;2276964;61;1073;-88
2021/01/17 06:29:37;84253.00;0.28;146.38;0.00;0.00;0.62;;;;;7.50;1.00;;;;;;2283665;61;1417;-85
2021/01/17 06:32:15;21269.00;0.07;37.47;0.00;0.00;0.62;;;;;7.70;1.00;;;;;;2276837;60;1155;-86
2021/01/17 06:34:46;81818.00;0.27;142.18;0.00;0.00;0.62;;;;;8.20;1.00;;;;;;2276969;61;1986;-88
2021/01/17 06:37:15;25090.00;0.08;44.08;0.00;0.00;0.62;;;;;8.00;1.00;;;;;;2283766;61;1136;-84
2021/01/17 06:39:48;85599.00;0.29;148.71;0.00;0.00;0.62;;;;;7.90;1.00;;;;;;2286567;60;1471;-85
2021/01/17 07:04:41;491034.00;1.64;846.39;0.00;0.00;0.62;;;;;8.90;1.00;;;;;;2281982;61;1140;-86
2021/01/17 07:19:34;613693.00;2.05;1057.87;31995.00;0.11;56.04;;;;;8.40;1.00;;;;;;2286684;60;1416;-86
2021/01/17 07:24:31;411674.00;1.37;709.88;0.00;0.00;0.62;;;;;8.70;1.00;;;;;;2511328;39;1933;31
2021/01/17 07:46:46;955780.00;3.19;1654.31;86081.00;0.29;149.54;;;;;8.60;1.00;;;;;;2286138;60;1084;-86
2021/01/17 07:59:05;770026.00;2.57;1328.90;0.00;0.00;0.62;;;;;8.80;1.00;;;;;;2281950;60;1401;-85
2021/01/17 08:04:22;227229.00;0.76;392.78;0.00;0.00;0.62;;;;;9.40;1.00;;;;;;2284705;61;1405;-85
2021/01/17 08:06:49;215990.00;0.72;373.44;99379.00;0.33;172.50;;;;;9.10;1.00;;;;;;2275881;61;1100;-84
2021/01/17 08:09:17;394044.00;1.31;679.57;88260.00;0.29;153.30;;;;;9.30;1.00;;;;;;2279382;61;1370;-85
2021/01/17 08:16:40;734682.00;2.45;1267.43;92612.00;0.31;160.82;;;;;9.60;1.00;;;;;;2289652;60;1401;-85
2021/01/17 08:19:07;195632.00;0.65;338.40;0.00;0.00;0.62;;;;;9.40;1.00;;;;;;2280592;60;1426;-86
2021/01/17 08:21:34;93519.00;0.31;162.38;0.00;0.00;0.62;;;;;8.70;1.00;;;;;;2287941;60;1075;-85
2021/01/17 08:24:19;67055.00;0.22;116.67;0.00;0.00;0.62;;;;;7.90;1.00;;;;;;2277520;60;1093;-85
2021/01/17 08:29:14;460003.00;1.53;792.99;0.00;0.00;0.62;;;;;7.70;1.00;;;;;;2285478;61;1414;-86
2021/01/17 08:31:43;268510.00;0.90;463.78;26437.00;0.09;46.42;;;;;7.50;1.00;;;;;;2283400;61;1230;-85
2021/01/17 08:34:13;159122.00;0.53;275.53;0.00;0.00;0.62;;;;;6.90;1.00;;;;;;2283495;61;1990;-86
2021/01/17 08:36:40;160773.00;0.54;278.37;0.00;0.00;0.62;;;;;6.50;1.00;;;;;;2272777;61;1164;-85
2021/01/17 08:39:07;311566.00;1.04;537.80;64846.00;0.22;112.85;;;;;6.20;1.00;;;;;;2283380;61;1437;-85
2021/01/17 08:41:38;256961.00;0.86;443.92;0.00;0.00;0.62;;;;;6.10;1.00;;;;;;2274743;61;1250;-85
2021/01/17 08:44:07;33105.00;0.11;57.96;0.00;0.00;0.62;;;;;6.10;1.00;;;;;;2274400;61;1001;-85
2021/01/17 08:46:35;173527.00;0.58;300.34;0.00;0.00;0.62;;;;;5.90;1.00;;;;;;2266354;61;1113;-85
2021/01/17 08:49:03;206574.00;0.69;357.24;0.00;0.00;0.62;;;;;5.80;1.00;;;;;;2253995;61;1257;-85
2021/01/17 08:51:30;316591.00;1.06;546.44;0.00;0.00;0.62;;;;;6.00;1.00;;;;;;2246337;62;1107;-85
2021/01/17 08:54:25;165777.00;0.55;286.99;0.00;0.00;0.62;;;;;6.10;1.00;;;;;;2245819;62;1928;-85
2021/01/17 08:56:54;384082.00;1.28;662.44;65389.00;0.22;113.79;;;;;6.30;1.00;;;;;;2242081;62;1158;-85
2021/01/17 08:59:37;153223.00;0.51;265.36;0.00;0.00;0.62;;;;;6.00;1.00;;;;;;2248478;61;1405;-85
2021/01/17 09:02:04;156968.00;0.52;271.82;0.00;0.00;0.62;;;;;6.40;1.00;;;;;;2253382;61;1264;-85
2021/01/17 09:04:32;13032.00;0.04;23.20;0.00;0.00;0.62;;;;;6.70;1.00;;;;;;2251460;61;1096;-84
2021/01/17 09:07:00;211487.00;0.70;365.69;0.00;0.00;0.62;;;;;6.90;1.00;;;;;;2247946;61;1183;-86
2021/01/17 09:09:27;56877.00;0.19;99.08;0.00;0.00;0.62;;;;;6.90;1.00;;;;;;2250208;61;1462;-86
2021/01/17 09:11:54;59979.00;0.20;104.44;0.00;0.00;0.62;;;;;6.80;1.00;;;;;;2255503;61;1165;-85
2021/01/17 09:14:30;257449.00;0.86;444.76;20407.00;0.07;35.97;;;;;6.90;1.00;;;;;;2252008;61;2021;-85
2021/01/17 09:17:00;63971.00;0.21;111.34;0.00;0.00;0.62;;;;;6.90;1.00;;;;;;2248742;61;1225;-85
2021/01/17 09:19:30;148126.00;0.49;256.58;0.00;0.00;0.62;;;;;7.00;1.00;;;;;;2257899;61;1424;-85
2021/01/17 09:21:59;43733.00;0.15;76.35;0.00;0.00;0.62;;;;;6.90;1.00;;;;;;2261020;61;1211;-85
2021/01/17 09:24:28;56055.00;0.19;97.66;0.00;0.00;0.62;;;;;7.00;1.00;;;;;;2273029;61;1168;-85
2021/01/17 09:26:56;2436.00;0.01;4.84;0.00;0.00;0.62;;;;;6.80;1.00;;;;;;2274196;61;1160;-86
2021/01/17 09:29:28;39865.00;0.13;69.65;0.00;0.00;0.62;;;;;7.10;1.00;;;;;;2269150;61;1320;-85
2021/01/17 09:32:01;70336.00;0.23;122.34;0.00;0.00;0.62;;;;;7.50;1.00;;;;;;2259888;61;1264;-85
2021/01/17 09:34:32;59205.00;0.20;103.10;0.00;0.00;0.62;;;;;7.60;1.00;;;;;;2263206;61;1991;-85
2021/01/17 09:37:01;121557.00;0.41;210.77;0.00;0.00;0.62;;;;;7.60;1.00;;;;;;2262004;61;1192;-85
2021/01/17 09:39:34;224792.00;0.75;388.59;0.00;0.00;0.62;;;;;7.60;1.00;;;;;;2253164;61;1338;-85
2021/01/17 09:42:03;177998.00;0.59;308.04;0.00;0.00;0.62;;;;;7.80;1.00;;;;;;2252587;61;1130;-85
2021/01/17 09:44:31;289662.00;0.97;500.15;0.00;0.00;0.62;;;;;7.70;1.00;;;;;;2253972;61;1284;-85
2021/01/17 09:46:59;88847.00;0.30;154.32;0.00;0.00;0.62;;;;;7.30;1.00;;;;;;2260628;61;1123;-85
2021/01/17 09:49:27;341326.00;1.14;588.95;0.00;0.00;0.62;;;;;7.40;1.00;;;;;;2268690;61;1417;-85
2021/01/17 09:51:54;305042.00;1.02;526.59;0.00;0.00;0.62;;;;;7.50;1.00;;;;;;2265229;61;1248;-85
2021/01/17 09:54:22;363001.00;1.21;626.21;0.00;0.00;0.62;;;;;7.30;1.00;;;;;;2268949;61;1977;-85
2021/01/17 09:56:49;79265.00;0.26;137.77;0.00;0.00;0.62;;;;;7.10;1.00;;;;;;2259474;61;1040;-85
2021/01/17 09:59:21;303650.00;1.01;524.19;0.00;0.00;0.62;;;;;7.00;1.00;;;;;;2259337;61;1377;-85
2021/01/17 10:01:50;25364.00;0.08;44.56;0.00;0.00;0.62;;;;;7.20;1.00;;;;;;2252763;61;967;-85
2021/01/17 10:04:24;90124.00;0.30;156.52;0.00;0.00;0.62;;;;;7.30;1.00;;;;;;2250412;61;1079;-84
2021/01/17 10:06:53;157185.00;0.52;272.19;0.00;0.00;0.62;;;;;7.20;1.00;;;;;;2242105;62;1240;-85
2021/01/17 10:09:23;72657.00;0.24;126.35;0.00;0.00;0.62;;;;;7.20;1.00;;;;;;2238761;62;1350;-84
2021/01/17 10:11:57;129319.00;0.43;224.15;0.00;0.00;0.62;;;;;7.10;1.00;;;;;;2239107;62;1207;-84
2021/01/17 10:14:25;110927.00;0.37;192.43;0.00;0.00;0.62;;;;;7.10;1.00;;;;;;2240391;62;2016;-84
2021/01/17 10:16:53;127600.00;0.43;221.19;0.00;0.00;0.62;;;;;7.50;1.00;;;;;;2243173;62;1651;-85
2021/01/17 10:19:24;200725.00;0.67;347.17;0.00;0.00;0.62;;;;;7.50;1.00;;;;;;2242721;62;1304;-85
2021/01/17 10:21:51;114106.00;0.38;197.91;0.00;0.00;0.62;;;;;7.30;1.00;;;;;;2245206;61;1623;-85
2021/01/17 10:24:22;273838.00;0.91;472.94;0.00;0.00;0.62;;;;;7.50;1.00;;;;;;2253826;61;1737;-84
2021/01/17 10:26:52;137946.00;0.46;239.03;0.00;0.00;0.62;;;;;8.20;1.00;;;;;;2265367;61;1775;-84
2021/01/17 10:29:21;141194.00;0.47;244.63;0.00;0.00;0.62;;;;;8.10;1.00;;;;;;2279562;61;1352;-85
2021/01/17 10:31:53;34277.00;0.11;59.99;0.00;0.00;0.62;;;;;8.10;1.00;;;;;;2281818;61;1045;-84
2021/01/17 10:34:30;26986.00;0.09;47.37;0.00;0.00;0.62;;;;;8.90;1.00;;;;;;2271392;61;1941;-82
2021/01/17 10:37:02;69499.00;0.23;120.89;0.00;0.00;0.62;;;;;9.50;1.00;;;;;;2271988;61;1191;-83
2021/01/17 10:39:31;22899.00;0.08;40.29;0.00;0.00;0.62;;;;;10.00;1.00;;;;;;2269460;61;1431;-82
2021/01/17 10:42:07;54092.00;0.18;94.26;0.00;0.00;0.62;;;;;10.30;1.00;;;;;;2264147;61;1168;-82
2021/01/17 10:44:39;0.00;0.00;0.62;0.00;0.00;0.62;;;;;10.20;1.00;;;;;;2271513;61;1138;-84
2021/01/17 10:47:22;59351.00;0.20;103.35;0.00;0.00;0.62;;;;;10.20;1.00;;;;;;2271396;61;1083;-83
2021/01/17 10:49:52;23949.00;0.08;42.11;0.00;0.00;0.62;;;;;10.30;1.00;;;;;;2268110;61;1314;-83
2021/01/17 10:52:23;124316.00;0.41;215.53;0.00;0.00;0.62;;;;;10.40;1.00;;;;;;2272042;61;1125;-82
2021/01/17 10:54:54;113679.00;0.38;197.18;0.00;0.00;0.62;;;;;10.50;1.00;;;;;;2272075;61;1918;-83
2021/01/17 10:57:22;75183.00;0.25;130.72;0.00;0.00;0.62;;;;;10.70;1.00;;;;;;2277371;61;1099;-83
2021/01/17 10:59:51;163386.00;0.54;282.87;37459.00;0.12;65.49;;;;;9.90;1.00;;;;;;2271999;61;1390;-83
2021/01/17 11:02:22;0.00;0.00;0.62;0.00;0.00;0.62;;;;;9.50;1.00;;;;;;2271967;61;1161;-83
2021/01/17 11:04:49;108445.00;0.36;188.15;0.00;0.00;0.62;;;;;8.90;1.00;;;;;;2272117;61;940;-84
2021/01/17 11:07:20;158750.00;0.53;274.89;0.00;0.00;0.62;;;;;8.50;1.00;;;;;;2264341;61;1180;-83
2021/01/17 11:09:47;7375.00;0.02;13.40;0.00;0.00;0.62;;;;;8.50;1.00;;;;;;2264101;61;1328;-83
2021/01/17 11:12:14;29041.00;0.10;50.92;0.00;0.00;0.62;;;;;8.40;1.00;;;;;;2258872;61;1107;-83
2021/01/17 11:14:41;10379.00;0.03;18.61;0.00;0.00;0.62;;;;;8.20;1.00;;;;;;2263157;61;1927;-83
2021/01/17 11:17:08;86024.00;0.29;149.44;0.00;0.00;0.62;;;;;8.20;1.00;;;;;;2258205;61;1197;-83
2021/01/17 11:19:37;129603.00;0.43;224.64;0.00;0.00;0.62;;;;;8.20;1.00;;;;;;2264791;61;1467;-86
2021/01/17 11:22:04;71142.00;0.24;123.73;0.00;0.00;0.62;;;;;8.20;1.00;;;;;;2268234;61;1053;-85
2021/01/17 11:24:41;29813.00;0.10;52.26;0.00;0.00;0.62;;;;;8.20;1.00;;;;;;2267927;61;1181;-84
2021/01/17 11:27:13;3108.00;0.01;6.01;0.00;0.00;0.62;;;;;8.20;1.00;;;;;;2268009;61;1077;-83
2021/01/17 11:29:41;24395.00;0.08;42.88;0.00;0.00;0.62;;;;;8.50;1.00;;;;;;2267281;61;1444;-84
2021/01/17 11:32:08;18620.00;0.06;32.88;0.00;0.00;0.62;;;;;8.60;1.00;;;;;;2273368;61;1136;-84
2021/01/17 11:34:38;0.00;0.00;0.62;0.00;0.00;0.62;;;;;8.50;1.00;;;;;;2274930;60;1925;-84
2021/01/17 11:37:06;19988.00;0.07;35.25;0.00;0.00;0.62;;;;;8.60;1.00;;;;;;2287311;60;1111;-85
2021/01/17 11:39:32;6097.00;0.02;11.19;0.00;0.00;0.62;;;;;8.60;1.00;;;;;;2288149;60;1454;-85
2021/01/17 11:41:59;48324.00;0.16;84.29;0.00;0.00;0.62;;;;;8.80;1.00;;;;;;2282432;61;1258;-85
2021/01/17 11:44:31;13359.00;0.04;23.77;0.00;0.00;0.62;;;;;8.80;1.00;;;;;;2272273;61;1252;-85
2021/01/17 11:47:01;15507.00;0.05;27.49;0.00;0.00;0.62;;;;;8.80;1.00;;;;;;2277454;61;1069;-85